sensor_id;sensor_type;location;lat;lon;timestamp;pressure;altitude;pressure_sealevel;temperature;humidity
60319;BME280;46163;52.306;5.634;2023-04-28T00:01:18;101318.97;;;16.98;52.72
60319;BME280;46163;52.306;5.634;2023-04-28T00:03:43;101308.47;;;16.97;52.54
60319;BME280;46163;52.306;5.634;2023-04-28T00:06:09;101299.59;;;16.96;52.45
60319;BME280;46163;52.306;5.634;2023-04-28T00:08:35;101298.16;;;16.93;52.69
60319;BME280;46163;52.306;5.634;2023-04-28T00:11:01;101306.22;;;16.93;52.53
60319;BME280;46163;52.306;5.634;2023-04-28T00:13:27;101301.31;;;16.90;52.48
60319;BME280;46163;52.306;5.634;2023-04-28T00:15:52;101308.09;;;16.93;52.59
60319;BME280;46163;52.306;5.634;2023-04-28T00:18:19;101295.94;;;16.90;52.53
60319;BME280;46163;52.306;5.634;2023-04-28T00:20:44;101289.75;;;16.90;52.65
60319;BME280;46163;52.306;5.634;2023-04-28T00:23:10;101286.72;;;16.86;52.64
60319;BME280;46163;52.306;5.634;2023-04-28T00:25:35;101287.28;;;16.88;52.55
60319;BME280;46163;52.306;5.634;2023-04-28T00:28:01;101287.28;;;16.88;52.60
60319;BME280;46163;52.306;5.634;2023-04-28T00:30:28;101276.78;;;16.87;52.57
60319;BME280;46163;52.306;5.634;2023-04-28T00:32:54;101269.75;;;16.86;52.27
60319;BME280;46163;52.306;5.634;2023-04-28T00:35:20;101262.72;;;16.85;52.68
60319;BME280;46163;52.306;5.634;2023-04-28T00:37:45;101260.03;;;16.85;52.52
60319;BME280;46163;52.306;5.634;2023-04-28T00:40:11;101254.91;;;16.83;52.59
60319;BME280;46163;52.306;5.634;2023-04-28T00:42:37;101262.97;;;16.83;52.41
60319;BME280;46163;52.306;5.634;2023-04-28T00:45:02;101264.50;;;16.79;52.43
60319;BME280;46163;52.306;5.634;2023-04-28T00:47:31;101256.19;;;16.81;52.35
60319;BME280;46163;52.306;5.634;2023-04-28T00:49:58;101250.00;;;16.80;52.33
60319;BME280;46163;52.306;5.634;2023-04-28T00:52:23;101249.41;;;16.78;52.60
60319;BME280;46163;52.306;5.634;2023-04-28T00:54:49;101246.72;;;16.78;52.18
60319;BME280;46163;52.306;5.634;2023-04-28T00:57:14;101242.41;;;16.77;52.41
60319;BME280;46163;52.306;5.634;2023-04-28T00:59:42;101244.28;;;16.77;52.34
60319;BME280;46163;52.306;5.634;2023-04-28T01:02:07;101231.28;;;16.74;52.31
60319;BME280;46163;52.306;5.634;2023-04-28T01:04:34;101235.84;;;16.73;52.52
60319;BME280;46163;52.306;5.634;2023-04-28T01:07:00;101233.16;;;16.73;52.51
60319;BME280;46163;52.306;5.634;2023-04-28T01:09:26;101240.41;;;16.73;52.58
60319;BME280;46163;52.306;5.634;2023-04-28T01:11:51;101231.75;;;16.71;52.37
60319;BME280;46163;52.306;5.634;2023-04-28T01:14:17;101236.31;;;16.70;52.46
60319;BME280;46163;52.306;5.634;2023-04-28T01:16:42;101235.50;;;16.70;52.50
60319;BME280;46163;52.306;5.634;2023-04-28T01:19:15;101217.34;;;16.65;52.36
60319;BME280;46163;52.306;5.634;2023-04-28T01:21:41;101217.91;;;16.67;52.47
60319;BME280;46163;52.306;5.634;2023-04-28T01:24:07;101213.59;;;16.66;52.48
60319;BME280;46163;52.306;5.634;2023-04-28T01:26:32;101218.16;;;16.65;52.30
60319;BME280;46163;52.306;5.634;2023-04-28T01:28:58;101214.88;;;16.63;52.34
60319;BME280;46163;52.306;5.634;2023-04-28T01:31:24;101216.75;;;16.63;52.39
60319;BME280;46163;52.306;5.634;2023-04-28T01:33:50;101217.00;;;16.61;52.23
60319;BME280;46163;52.306;5.634;2023-04-28T01:36:16;101214.97;;;16.57;52.23
60319;BME280;46163;52.306;5.634;2023-04-28T01:38:41;101211.84;;;16.60;52.45
60319;BME280;46163;52.306;5.634;2023-04-28T01:41:09;101206.69;;;16.58;52.41
60319;BME280;46163;52.306;5.634;2023-04-28T01:43:35;101208.78;;;16.56;52.41
60319;BME280;46163;52.306;5.634;2023-04-28T01:46:01;101203.41;;;16.56;52.32
60319;BME280;46163;52.306;5.634;2023-04-28T01:48:26;101200.97;;;16.55;52.28
60319;BME280;46163;52.306;5.634;2023-04-28T01:50:52;101197.69;;;16.53;52.44
60319;BME280;46163;52.306;5.634;2023-04-28T01:53:17;101200.38;;;16.53;52.42
60319;BME280;46163;52.306;5.634;2023-04-28T01:55:45;101195.00;;;16.53;52.47
60319;BME280;46163;52.306;5.634;2023-04-28T01:58:11;101194.44;;;16.51;52.30
60319;BME280;46163;52.306;5.634;2023-04-28T02:00:36;101186.56;;;16.49;52.37
60319;BME280;46163;52.306;5.634;2023-04-28T02:03:02;101189.25;;;16.49;52.54
60319;BME280;46163;52.306;5.634;2023-04-28T02:05:27;101192.75;;;16.50;52.30
60319;BME280;46163;52.306;5.634;2023-04-28T02:07:53;101191.94;;;16.49;52.31
60319;BME280;46163;52.306;5.634;2023-04-28T02:10:18;101180.84;;;16.46;52.18
60319;BME280;46163;52.306;5.634;2023-04-28T02:12:44;101179.81;;;16.47;52.26
60319;BME280;46163;52.306;5.634;2023-04-28T02:15:10;101182.72;;;16.45;52.44
60319;BME280;46163;52.306;5.634;2023-04-28T02:17:35;101170.34;;;16.44;52.31
60319;BME280;46163;52.306;5.634;2023-04-28T02:20:00;101172.81;;;16.46;52.34
60319;BME280;46163;52.306;5.634;2023-04-28T02:22:26;101172.22;;;16.44;52.14
60319;BME280;46163;52.306;5.634;2023-04-28T02:24:51;101170.59;;;16.43;52.37
60319;BME280;46163;52.306;5.634;2023-04-28T02:27:17;101171.41;;;16.43;52.37
60319;BME280;46163;52.306;5.634;2023-04-28T02:29:42;101169.97;;;16.40;52.30
60319;BME280;46163;52.306;5.634;2023-04-28T02:32:08;101168.09;;;16.41;52.24
60319;BME280;46163;52.306;5.634;2023-04-28T02:34:33;101159.47;;;16.39;52.18
60319;BME280;46163;52.306;5.634;2023-04-28T02:36:59;101157.59;;;16.39;52.17
60319;BME280;46163;52.306;5.634;2023-04-28T02:39:25;101146.28;;;16.37;52.36
60319;BME280;46163;52.306;5.634;2023-04-28T02:41:52;101148.72;;;16.39;52.21
60319;BME280;46163;52.306;5.634;2023-04-28T02:44:17;101140.91;;;16.37;52.20
60319;BME280;46163;52.306;5.634;2023-04-28T02:46:43;101139.25;;;16.36;52.23
60319;BME280;46163;52.306;5.634;2023-04-28T02:49:08;101136.81;;;16.35;52.19
60319;BME280;46163;52.306;5.634;2023-04-28T02:51:33;101143.00;;;16.35;52.32
60319;BME280;46163;52.306;5.634;2023-04-28T02:53:59;101121.28;;;16.25;52.08
60319;BME280;46163;52.306;5.634;2023-04-28T02:56:25;101122.56;;;16.34;52.07
60319;BME280;46163;52.306;5.634;2023-04-28T02:58:51;101125.69;;;16.31;52.19
60319;BME280;46163;52.306;5.634;2023-04-28T03:01:17;101121.38;;;16.30;52.21
60319;BME280;46163;52.306;5.634;2023-04-28T03:03:42;101118.69;;;16.30;51.93
60319;BME280;46163;52.306;5.634;2023-04-28T03:06:08;101109.59;;;16.31;52.10
60319;BME280;46163;52.306;5.634;2023-04-28T03:08:33;101104.44;;;16.30;52.13
60319;BME280;46163;52.306;5.634;2023-04-28T03:10:59;101100.94;;;16.29;52.12
60319;BME280;46163;52.306;5.634;2023-04-28T03:13:24;101100.38;;;16.27;52.31
60319;BME280;46163;52.306;5.634;2023-04-28T03:15:50;101090.91;;;16.25;52.30
60319;BME280;46163;52.306;5.634;2023-04-28T03:18:16;101084.69;;;16.24;52.09
60319;BME280;46163;52.306;5.634;2023-04-28T03:20:43;101092.56;;;16.26;52.07
60319;BME280;46163;52.306;5.634;2023-04-28T03:23:08;101080.19;;;16.25;52.08
60319;BME280;46163;52.306;5.634;2023-04-28T03:25:34;101073.97;;;16.24;52.16
60319;BME280;46163;52.306;5.634;2023-04-28T03:27:59;101076.66;;;16.24;52.00
60319;BME280;46163;52.306;5.634;2023-04-28T03:30:24;101068.00;;;16.22;52.03
60319;BME280;46163;52.306;5.634;2023-04-28T03:32:50;101075.84;;;16.24;52.01
60319;BME280;46163;52.306;5.634;2023-04-28T03:35:15;101064.50;;;16.22;51.96
60319;BME280;46163;52.306;5.634;2023-04-28T03:37:41;101069.88;;;16.22;52.04
60319;BME280;46163;52.306;5.634;2023-04-28T03:40:07;101058.31;;;16.21;52.03
60319;BME280;46163;52.306;5.634;2023-04-28T03:42:32;101045.94;;;16.20;52.10
60319;BME280;46163;52.306;5.634;2023-04-28T03:44:58;101040.81;;;16.19;52.13
60319;BME280;46163;52.306;5.634;2023-04-28T03:47:23;101034.63;;;16.18;52.22
60319;BME280;46163;52.306;5.634;2023-04-28T03:49:49;101031.13;;;16.18;52.28
60319;BME280;46163;52.306;5.634;2023-04-28T03:52:14;101025.16;;;16.16;51.94
60319;BME280;46163;52.306;5.634;2023-04-28T03:54:40;101028.88;;;16.15;52.06
60319;BME280;46163;52.306;5.634;2023-04-28T03:57:05;101032.53;;;16.20;51.94
60319;BME280;46163;52.306;5.634;2023-04-28T03:59:31;101021.09;;;16.25;51.70
60319;BME280;46163;52.306;5.634;2023-04-28T04:01:57;101017.47;;;16.31;51.47
60319;BME280;46163;52.306;5.634;2023-04-28T04:04:22;101014.66;;;16.37;51.52
60319;BME280;46163;52.306;5.634;2023-04-28T04:06:48;101012.91;;;16.43;51.39
60319;BME280;46163;52.306;5.634;2023-04-28T04:09:13;101011.38;;;16.47;51.30
60319;BME280;46163;52.306;5.634;2023-04-28T04:11:39;101002.38;;;16.53;51.07
60319;BME280;46163;52.306;5.634;2023-04-28T04:14:04;101009.84;;;16.63;51.06
60319;BME280;46163;52.306;5.634;2023-04-28T04:16:30;101008.31;;;16.67;50.81
60319;BME280;46163;52.306;5.634;2023-04-28T04:18:56;101000.72;;;16.76;50.71
60319;BME280;46163;52.306;5.634;2023-04-28T04:21:21;101009.47;;;16.83;50.45
60319;BME280;46163;52.306;5.634;2023-04-28T04:23:46;101007.72;;;16.88;50.24
60319;BME280;46163;52.306;5.634;2023-04-28T04:26:12;101000.34;;;16.95;50.38
60319;BME280;46163;52.306;5.634;2023-04-28T04:28:38;100995.03;;;17.01;50.33
60319;BME280;46163;52.306;5.634;2023-04-28T04:31:03;101000.03;;;17.09;50.07
60319;BME280;46163;52.306;5.634;2023-04-28T04:33:29;100989.41;;;17.14;49.96
60319;BME280;46163;52.306;5.634;2023-04-28T04:35:54;100991.34;;;17.18;49.94
60319;BME280;46163;52.306;5.634;2023-04-28T04:38:19;100983.38;;;17.23;49.84
60319;BME280;46163;52.306;5.634;2023-04-28T04:40:45;100982.44;;;17.30;49.56
60319;BME280;46163;52.306;5.634;2023-04-28T04:43:11;100983.56;;;17.34;49.30
60319;BME280;46163;52.306;5.634;2023-04-28T04:45:36;100985.56;;;17.38;49.40
60319;BME280;46163;52.306;5.634;2023-04-28T04:48:02;100987.75;;;17.41;49.29
60319;BME280;46163;52.306;5.634;2023-04-28T04:50:28;100991.56;;;17.45;49.04
60319;BME280;46163;52.306;5.634;2023-04-28T04:52:53;100983.28;;;17.47;49.03
60319;BME280;46163;52.306;5.634;2023-04-28T04:55:20;100990.03;;;17.49;48.88
60319;BME280;46163;52.306;5.634;2023-04-28T04:57:46;100981.16;;;17.49;48.94
60319;BME280;46163;52.306;5.634;2023-04-28T05:00:12;100986.03;;;17.52;49.14
60319;BME280;46163;52.306;5.634;2023-04-28T05:02:38;100993.06;;;17.53;48.97
60319;BME280;46163;52.306;5.634;2023-04-28T05:05:04;100983.09;;;17.53;49.05
60319;BME280;46163;52.306;5.634;2023-04-28T05:07:30;100990.13;;;17.55;48.80
60319;BME280;46163;52.306;5.634;2023-04-28T05:09:56;100979.34;;;17.55;48.74
60319;BME280;46163;52.306;5.634;2023-04-28T05:12:21;100971.78;;;17.51;49.00
60319;BME280;46163;52.306;5.634;2023-04-28T05:14:47;100978.06;;;17.57;48.85
60319;BME280;46163;52.306;5.634;2023-04-28T05:17:12;100968.13;;;17.58;48.84
60319;BME280;46163;52.306;5.634;2023-04-28T05:19:38;100972.44;;;17.59;48.54
60319;BME280;46163;52.306;5.634;2023-04-28T05:22:03;100967.63;;;17.61;48.93
60319;BME280;46163;52.306;5.634;2023-04-28T05:24:29;100970.06;;;17.62;48.64
60319;BME280;46163;52.306;5.634;2023-04-28T05:26:57;100956.84;;;17.61;48.88
60319;BME280;46163;52.306;5.634;2023-04-28T05:29:23;100967.97;;;17.64;48.48
60319;BME280;46163;52.306;5.634;2023-04-28T05:31:48;100966.66;;;17.67;48.10
60319;BME280;46163;52.306;5.634;2023-04-28T05:34:14;100966.41;;;17.68;48.54
60319;BME280;46163;52.306;5.634;2023-04-28T05:36:40;100960.81;;;17.70;48.46
60319;BME280;46163;52.306;5.634;2023-04-28T05:39:05;100954.56;;;17.69;48.65
60319;BME280;46163;52.306;5.634;2023-04-28T05:41:31;100952.72;;;17.70;48.83
60319;BME280;46163;52.306;5.634;2023-04-28T05:43:57;100955.75;;;17.73;48.76
60319;BME280;46163;52.306;5.634;2023-04-28T05:46:22;100959.53;;;17.72;48.53
60319;BME280;46163;52.306;5.634;2023-04-28T05:48:48;100948.88;;;17.66;48.72
60319;BME280;46163;52.306;5.634;2023-04-28T05:51:13;100973.03;;;17.77;48.77
60319;BME280;46163;52.306;5.634;2023-04-28T05:53:39;100975.50;;;17.79;48.71
60319;BME280;46163;52.306;5.634;2023-04-28T05:56:05;100962.84;;;17.79;49.17
60319;BME280;46163;52.306;5.634;2023-04-28T05:58:31;100974.19;;;17.82;48.59
60319;BME280;46163;52.306;5.634;2023-04-28T06:00:57;100974.19;;;17.82;48.78
60319;BME280;46163;52.306;5.634;2023-04-28T06:03:22;100971.25;;;17.83;48.80
60319;BME280;46163;52.306;5.634;2023-04-28T06:05:48;100973.69;;;17.85;48.81
60319;BME280;46163;52.306;5.634;2023-04-28T06:08:14;100968.56;;;17.83;48.88
60319;BME280;46163;52.306;5.634;2023-04-28T06:10:39;100967.25;;;17.86;48.63
60319;BME280;46163;52.306;5.634;2023-04-28T06:13:05;100942.22;;;17.85;48.76
60319;BME280;46163;52.306;5.634;2023-04-28T06:15:32;100942.78;;;17.87;48.96
60319;BME280;46163;52.306;5.634;2023-04-28T06:17:59;100945.41;;;17.82;48.84
60319;BME280;46163;52.306;5.634;2023-04-28T06:20:25;100957.38;;;17.91;48.81
60319;BME280;46163;52.306;5.634;2023-04-28T06:22:50;100948.72;;;17.89;48.94
60319;BME280;46163;52.306;5.634;2023-04-28T06:25:16;100949.06;;;17.93;49.22
60319;BME280;46163;52.306;5.634;2023-04-28T06:27:44;100949.88;;;17.93;49.33
60319;BME280;46163;52.306;5.634;2023-04-28T06:30:16;100939.59;;;17.90;49.29
60319;BME280;46163;52.306;5.634;2023-04-28T06:32:42;100932.91;;;17.93;49.34
60319;BME280;46163;52.306;5.634;2023-04-28T06:35:08;100922.38;;;17.91;49.46
60319;BME280;46163;52.306;5.634;2023-04-28T06:37:34;100915.94;;;17.92;49.58
60319;BME280;46163;52.306;5.634;2023-04-28T06:40:00;100899.28;;;17.95;49.44
60319;BME280;46163;52.306;5.634;2023-04-28T06:42:25;100899.28;;;17.95;49.41
60319;BME280;46163;52.306;5.634;2023-04-28T06:44:51;100891.19;;;17.95;49.41
60319;BME280;46163;52.306;5.634;2023-04-28T06:47:17;100884.19;;;17.94;49.33
60319;BME280;46163;52.306;5.634;2023-04-28T06:49:42;100893.06;;;17.95;49.30
60319;BME280;46163;52.306;5.634;2023-04-28T06:52:08;100912.19;;;17.93;49.53
60319;BME280;46163;52.306;5.634;2023-04-28T06:54:34;100922.94;;;17.93;49.50
60319;BME280;46163;52.306;5.634;2023-04-28T06:57:01;100927.19;;;17.89;49.51
60319;BME280;46163;52.306;5.634;2023-04-28T06:59:27;100929.66;;;17.91;49.36
60319;BME280;46163;52.306;5.634;2023-04-28T07:01:52;100925.00;;;17.86;49.38
60319;BME280;46163;52.306;5.634;2023-04-28T07:04:17;100932.81;;;17.88;49.65
60319;BME280;46163;52.306;5.634;2023-04-28T07:06:43;100933.63;;;17.88;49.33
60319;BME280;46163;52.306;5.634;2023-04-28T07:09:08;100929.56;;;17.86;49.28
60319;BME280;46163;52.306;5.634;2023-04-28T07:11:34;100931.44;;;17.85;49.49
60319;BME280;46163;52.306;5.634;2023-04-28T07:13:59;100932.50;;;17.84;49.45
60319;BME280;46163;52.306;5.634;2023-04-28T07:16:25;100927.13;;;17.84;49.51
60319;BME280;46163;52.306;5.634;2023-04-28T07:18:50;100931.13;;;17.82;49.52
60319;BME280;46163;52.306;5.634;2023-04-28T07:21:16;100918.38;;;17.77;49.54
60319;BME280;46163;52.306;5.634;2023-04-28T07:23:41;100922.81;;;17.83;49.52
60319;BME280;46163;52.306;5.634;2023-04-28T07:26:07;100923.63;;;17.84;49.44
60319;BME280;46163;52.306;5.634;2023-04-28T07:28:33;100919.03;;;17.84;49.46
60319;BME280;46163;52.306;5.634;2023-04-28T07:30:59;100920.66;;;17.85;49.47
60319;BME280;46163;52.306;5.634;2023-04-28T07:33:24;100915.28;;;17.85;49.43
60319;BME280;46163;52.306;5.634;2023-04-28T07:35:50;100918.88;;;17.91;49.52
60319;BME280;46163;52.306;5.634;2023-04-28T07:38:17;100922.84;;;17.88;49.25
60319;BME280;46163;52.306;5.634;2023-04-28T07:40:44;100926.44;;;17.94;49.31
60319;BME280;46163;52.306;5.634;2023-04-28T07:43:10;100927.25;;;17.94;49.33
60319;BME280;46163;52.306;5.634;2023-04-28T07:45:38;100921.63;;;17.96;49.21
60319;BME280;46163;52.306;5.634;2023-04-28T07:48:03;100919.50;;;17.98;49.32
60319;BME280;46163;52.306;5.634;2023-04-28T07:50:29;100921.97;;;17.99;49.24
60319;BME280;46163;52.306;5.634;2023-04-28T07:52:54;100922.28;;;18.03;49.26
60319;BME280;46163;52.306;5.634;2023-04-28T07:55:20;100920.41;;;18.03;49.28
60319;BME280;46163;52.306;5.634;2023-04-28T07:57:45;100916.63;;;18.04;49.19
60319;BME280;46163;52.306;5.634;2023-04-28T08:00:11;100910.19;;;18.05;49.17
60319;BME280;46163;52.306;5.634;2023-04-28T08:02:37;100897.53;;;18.06;49.10
60319;BME280;46163;52.306;5.634;2023-04-28T08:05:02;100899.75;;;18.09;49.14
60319;BME280;46163;52.306;5.634;2023-04-28T08:07:28;100897.88;;;18.10;49.08
60319;BME280;46163;52.306;5.634;2023-04-28T08:09:53;100891.97;;;18.13;49.16
60319;BME280;46163;52.306;5.634;2023-04-28T08:12:19;100889.03;;;18.14;48.92
60319;BME280;46163;52.306;5.634;2023-04-28T08:14:46;100887.72;;;18.17;48.98
60319;BME280;46163;52.306;5.634;2023-04-28T08:17:12;100892.06;;;18.18;48.88
60319;BME280;46163;52.306;5.634;2023-04-28T08:19:38;100906.06;;;18.20;49.02
60319;BME280;46163;52.306;5.634;2023-04-28T08:22:04;100907.69;;;18.21;48.89
60319;BME280;46163;52.306;5.634;2023-04-28T08:24:31;100904.50;;;18.24;48.97
60319;BME280;46163;52.306;5.634;2023-04-28T08:27:01;100906.16;;;18.25;48.81
60319;BME280;46163;52.306;5.634;2023-04-28T08:29:30;100899.69;;;18.26;48.78
60319;BME280;46163;52.306;5.634;2023-04-28T08:31:57;100900.50;;;18.26;48.78
60319;BME280;46163;52.306;5.634;2023-04-28T08:34:23;100903.22;;;18.26;48.89
60319;BME280;46163;52.306;5.634;2023-04-28T08:36:48;100917.50;;;18.27;48.64
60319;BME280;46163;52.306;5.634;2023-04-28T08:39:14;100909.16;;;18.28;48.80
60319;BME280;46163;52.306;5.634;2023-04-28T08:41:40;100909.16;;;18.28;48.89
60319;BME280;46163;52.306;5.634;2023-04-28T08:44:08;100904.56;;;18.29;48.41
60319;BME280;46163;52.306;5.634;2023-04-28T08:46:33;100901.63;;;18.30;48.75
60319;BME280;46163;52.306;5.634;2023-04-28T08:49:00;100900.56;;;18.31;48.58
60319;BME280;46163;52.306;5.634;2023-04-28T08:51:39;100899.75;;;18.31;48.63
60319;BME280;46163;52.306;5.634;2023-04-28T08:54:09;100892.47;;;18.31;48.75
60319;BME280;46163;52.306;5.634;2023-04-28T08:56:37;100891.66;;;18.31;48.61
60319;BME280;46163;52.306;5.634;2023-04-28T08:59:03;100897.88;;;18.31;48.78
60319;BME280;46163;52.306;5.634;2023-04-28T09:01:32;100900.81;;;18.30;48.87
60319;BME280;46163;52.306;5.634;2023-04-28T09:04:02;100894.63;;;18.29;48.55
60319;BME280;46163;52.306;5.634;2023-04-28T09:06:34;100887.34;;;18.30;48.63
60319;BME280;46163;52.306;5.634;2023-04-28T09:09:20;100881.66;;;18.26;48.55
60319;BME280;46163;52.306;5.634;2023-04-28T09:12:12;100881.66;;;18.26;48.78
60319;BME280;46163;52.306;5.634;2023-04-28T09:14:38;100877.56;;;18.24;49.00
60319;BME280;46163;52.306;5.634;2023-04-28T09:17:13;100855.88;;;18.14;48.70
60319;BME280;46163;52.306;5.634;2023-04-28T09:19:39;100873.75;;;18.20;48.99
60319;BME280;46163;52.306;5.634;2023-04-28T09:22:07;100873.19;;;18.18;48.96
60319;BME280;46163;52.306;5.634;2023-04-28T09:24:38;100858.09;;;18.17;48.83
60319;BME280;46163;52.306;5.634;2023-04-28T09:27:09;100862.16;;;18.19;49.14
60319;BME280;46163;52.306;5.634;2023-04-28T09:29:36;100858.66;;;18.19;49.14
60319;BME280;46163;52.306;5.634;2023-04-28T09:34:52;100856.47;;;18.16;48.99
60319;BME280;46163;52.306;5.634;2023-04-28T09:37:22;100855.16;;;18.18;48.90
60319;BME280;46163;52.306;5.634;2023-04-28T09:39:52;100855.97;;;18.19;48.99
60319;BME280;46163;52.306;5.634;2023-04-28T09:42:40;100847.34;;;18.17;48.72
60319;BME280;46163;52.306;5.634;2023-04-28T09:45:13;100854.09;;;18.19;48.95
60319;BME280;46163;52.306;5.634;2023-04-28T09:47:43;100862.97;;;18.20;49.19
60319;BME280;46163;52.306;5.634;2023-04-28T09:50:12;100857.84;;;18.18;49.16
60319;BME280;46163;52.306;5.634;2023-04-28T09:52:56;100855.97;;;18.19;49.17
60319;BME280;46163;52.306;5.634;2023-04-28T09:55:23;100849.75;;;18.18;49.13
60319;BME280;46163;52.306;5.634;2023-04-28T09:57:48;100854.66;;;18.21;48.96
60319;BME280;46163;52.306;5.634;2023-04-28T10:00:19;100833.88;;;18.17;49.05
60319;BME280;46163;52.306;5.634;2023-04-28T10:02:45;100852.03;;;18.26;49.11
60319;BME280;46163;52.306;5.634;2023-04-28T10:05:10;100837.22;;;18.29;49.08
60319;BME280;46163;52.306;5.634;2023-04-28T10:07:37;100852.59;;;18.28;48.88
60319;BME280;46163;52.306;5.634;2023-04-28T10:10:04;100835.34;;;18.29;48.87
60319;BME280;46163;52.306;5.634;2023-04-28T10:12:31;100842.09;;;18.32;48.90
60319;BME280;46163;52.306;5.634;2023-04-28T10:14:57;100841.88;;;18.33;48.91
60319;BME280;46163;52.306;5.634;2023-04-28T10:17:22;100848.63;;;18.36;48.89
60319;BME280;46163;52.306;5.634;2023-04-28T10:19:52;100841.38;;;18.36;49.11
60319;BME280;46163;52.306;5.634;2023-04-28T10:25:28;100849.75;;;18.40;49.49
60319;BME280;46163;52.306;5.634;2023-04-28T10:27:56;100843.28;;;18.41;49.03
60319;BME280;46163;52.306;5.634;2023-04-28T10:30:24;100847.63;;;18.42;49.33
60319;BME280;46163;52.306;5.634;2023-04-28T10:40:45;100842.72;;;18.39;49.39
60319;BME280;46163;52.306;5.634;2023-04-28T10:48:22;100849.75;;;18.40;49.44
60319;BME280;46163;52.306;5.634;2023-04-28T10:58:38;100846.25;;;18.40;49.35
60319;BME280;46163;52.306;5.634;2023-04-28T11:03:51;100855.66;;;18.37;49.38
60319;BME280;46163;52.306;5.634;2023-04-28T11:06:41;100862.38;;;18.34;49.56
60319;BME280;46163;52.306;5.634;2023-04-28T11:16:48;100851.00;;;18.32;49.48
60319;BME280;46163;52.306;5.634;2023-04-28T11:19:19;100855.34;;;18.33;49.61
60319;BME280;46163;52.306;5.634;2023-04-28T11:21:47;100846.94;;;18.30;49.71
60319;BME280;46163;52.306;5.634;2023-04-28T11:24:13;100837.78;;;18.31;49.89
60319;BME280;46163;52.306;5.634;2023-04-28T11:26:39;100838.31;;;18.28;49.65
60319;BME280;46163;52.306;5.634;2023-04-28T11:29:05;100844.50;;;18.28;49.67
60319;BME280;46163;52.306;5.634;2023-04-28T11:31:31;100846.63;;;18.26;50.00
60319;BME280;46163;52.306;5.634;2023-04-28T11:34:03;100838.81;;;18.25;49.87
60319;BME280;46163;52.306;5.634;2023-04-28T11:36:38;100839.63;;;18.25;49.82
60319;BME280;46163;52.306;5.634;2023-04-28T11:39:09;100828.84;;;18.25;49.77
60319;BME280;46163;52.306;5.634;2023-04-28T11:41:37;100843.69;;;18.28;50.09
60319;BME280;46163;52.306;5.634;2023-04-28T11:44:16;100836.69;;;18.27;49.82
60319;BME280;46163;52.306;5.634;2023-04-28T11:46:56;100834.53;;;18.29;49.86
60319;BME280;46163;52.306;5.634;2023-04-28T11:49:30;100840.75;;;18.29;49.92
60319;BME280;46163;52.306;5.634;2023-04-28T11:51:57;100840.22;;;18.32;49.92
60319;BME280;46163;52.306;5.634;2023-04-28T11:54:28;100835.66;;;18.33;49.77
60319;BME280;46163;52.306;5.634;2023-04-28T11:56:54;100836.50;;;18.33;49.89
60319;BME280;46163;52.306;5.634;2023-04-28T11:59:26;100836.22;;;18.35;50.01
60319;BME280;46163;52.306;5.634;2023-04-28T12:01:53;100837.84;;;18.36;49.92
60319;BME280;46163;52.306;5.634;2023-04-28T12:04:39;100833.03;;;18.38;50.26
60319;BME280;46163;52.306;5.634;2023-04-28T12:07:12;100836.78;;;18.37;50.12
60319;BME280;46163;52.306;5.634;2023-04-28T12:09:42;100834.66;;;18.39;50.00
60319;BME280;46163;52.306;5.634;2023-04-28T12:12:27;100833.56;;;18.40;50.07
60319;BME280;46163;52.306;5.634;2023-04-28T12:14:56;100829.81;;;18.41;50.12
60319;BME280;46163;52.306;5.634;2023-04-28T12:17:26;100833.09;;;18.43;49.85
60319;BME280;46163;52.306;5.634;2023-04-28T12:19:53;100829.59;;;18.43;50.00
60319;BME280;46163;52.306;5.634;2023-04-28T12:22:20;100836.84;;;18.42;49.84
60319;BME280;46163;52.306;5.634;2023-04-28T12:24:45;100830.63;;;18.42;49.71
60319;BME280;46163;52.306;5.634;2023-04-28T12:27:19;100831.22;;;18.44;49.74
60319;BME280;46163;52.306;5.634;2023-04-28T12:29:49;100828.81;;;18.47;49.98
60319;BME280;46163;52.306;5.634;2023-04-28T12:32:15;100824.50;;;18.46;49.80
60319;BME280;46163;52.306;5.634;2023-04-28T12:34:44;100831.50;;;18.47;50.07
60319;BME280;46163;52.306;5.634;2023-04-28T12:37:10;100821.25;;;18.44;49.73
60319;BME280;46163;52.306;5.634;2023-04-28T12:39:38;100830.69;;;18.47;49.99
60319;BME280;46163;52.306;5.634;2023-04-28T12:42:04;100823.69;;;18.46;49.84
60319;BME280;46163;52.306;5.634;2023-04-28T12:44:39;100814.16;;;18.38;49.98
60319;BME280;46163;52.306;5.634;2023-04-28T12:47:06;100829.06;;;18.46;49.88
60319;BME280;46163;52.306;5.634;2023-04-28T12:49:35;100832.03;;;18.44;49.76
60319;BME280;46163;52.306;5.634;2023-04-28T12:52:04;100826.09;;;18.42;49.83
60319;BME280;46163;52.306;5.634;2023-04-28T12:54:30;100819.84;;;18.42;49.97
60319;BME280;46163;52.306;5.634;2023-04-28T12:56:56;100826.09;;;18.42;49.95
60319;BME280;46163;52.306;5.634;2023-04-28T12:59:22;100826.31;;;18.41;49.99
60319;BME280;46163;52.306;5.634;2023-04-28T13:01:48;100831.94;;;18.39;49.79
60319;BME280;46163;52.306;5.634;2023-04-28T13:04:15;100826.00;;;18.37;50.03
60319;BME280;46163;52.306;5.634;2023-04-28T13:06:41;100824.38;;;18.36;50.01
60319;BME280;46163;52.306;5.634;2023-04-28T13:09:12;100839.19;;;18.33;49.93
60319;BME280;46163;52.306;5.634;2023-04-28T13:11:39;100835.09;;;18.31;50.12
60319;BME280;46163;52.306;5.634;2023-04-28T13:14:06;100834.03;;;18.32;49.89
60319;BME280;46163;52.306;5.634;2023-04-28T13:16:32;100833.22;;;18.31;50.04
60319;BME280;46163;52.306;5.634;2023-04-28T13:18:58;100831.84;;;18.29;50.16
60319;BME280;46163;52.306;5.634;2023-04-28T13:21:25;100833.47;;;18.30;50.02
60319;BME280;46163;52.306;5.634;2023-04-28T13:23:52;100836.16;;;18.30;50.01
60319;BME280;46163;52.306;5.634;2023-04-28T13:26:18;100838.84;;;18.30;50.28